Time;durP1;ratioP1;P1;durP2;ratioP2;P2;SDS_P1;SDS_P2;PMS_P1;PMS_P2;Temp;Humidity;BMP_temperature;BMP_pressure;BME280_temperature;BME280_humidity;BME280_pressure;Samples;Min_cycle;Max_cycle;Signal;HPM_P1;HPM_P2
2022/10/11 00:00:16;;;;;;;;;;;15.10;67.20;;;;;;5043851;28;88042;-37
2022/10/11 00:02:42;;;;;;;;;;;15.20;67.30;;;;;;5047009;28;87007;-38
2022/10/11 00:05:07;;;;;;;;;;;15.20;67.30;;;;;;5043276;28;88374;-38
2022/10/11 00:07:33;;;;;;;;;;;15.10;67.20;;;;;;5043979;28;86993;-38
2022/10/11 00:09:59;;;;;;;;;;;15.10;67.30;;;;;;5044298;27;86985;-37
2022/10/11 00:12:24;;;;;;;;;;;15.10;67.20;;;;;;5043706;28;88189;-37
2022/10/11 00:14:49;;;;;;;;;;;15.10;67.20;;;;;;5044229;28;87081;-37
2022/10/11 00:17:15;;;;;;;;;;;15.10;67.30;;;;;;5043680;28;87009;-38
2022/10/11 00:19:41;;;;;;;;;;;15.10;67.30;;;;;;5043762;28;87120;-37
2022/10/11 00:22:06;;;;;;;;;;;15.10;67.20;;;;;;5047470;28;86377;-37
2022/10/11 00:24:32;;;;;;;;;;;15.10;67.30;;;;;;5043115;28;88276;-37
2022/10/11 00:26:57;;;;;;;;;;;15.10;67.20;;;;;;5043859;28;87065;-37
2022/10/11 00:29:23;;;;;;;;;;;15.10;67.20;;;;;;5043352;27;87858;-37
2022/10/11 00:31:48;;;;;;;;;;;15.10;67.20;;;;;;5043381;28;88096;-37
2022/10/11 00:34:16;;;;;;;;;;;15.10;67.30;;;;;;5043852;28;87129;-37
2022/10/11 00:36:42;;;;;;;;;;;15.10;67.20;;;;;;5043469;27;87395;-37
2022/10/11 00:39:08;;;;;;;;;;;15.10;67.30;;;;;;5043135;28;88115;-37
2022/10/11 00:41:33;;;;;;;;;;;15.10;67.20;;;;;;5043580;28;87123;-37
2022/10/11 00:44:09;;;;;;;;;;;15.10;67.20;;;;;;5046155;28;87404;-37
2022/10/11 00:46:34;;;;;;;;;;;15.10;67.30;;;;;;5044006;28;86219;-37
2022/10/11 00:49:03;;;;;;;;;;;15.10;67.20;;;;;;5043425;28;87006;-38
2022/10/11 00:51:37;;;;;;;;;;;15.10;67.30;;;;;;5042799;28;87288;-37
2022/10/11 00:54:04;;;;;;;;;;;15.10;67.20;;;;;;5042740;28;88032;-37
2022/10/11 00:56:32;;;;;;;;;;;15.10;67.20;;;;;;5043522;27;88281;-37
2022/10/11 00:58:59;;;;;;;;;;;15.10;67.30;;;;;;5042905;28;87522;-37
2022/10/11 01:01:25;;;;;;;;;;;15.00;67.20;;;;;;5043335;28;87112;-38
2022/10/11 01:03:50;;;;;;;;;;;15.00;67.20;;;;;;5043435;28;87426;-37
2022/10/11 01:06:16;;;;;;;;;;;15.10;67.30;;;;;;5045609;28;88156;-36
2022/10/11 01:08:42;;;;;;;;;;;15.00;67.20;;;;;;5043052;28;87548;-37
2022/10/11 01:11:12;;;;;;;;;;;15.00;67.20;;;;;;5043374;28;87417;-37
2022/10/11 01:13:44;;;;;;;;;;;15.10;67.30;;;;;;5043102;28;87100;-38
2022/10/11 01:16:14;;;;;;;;;;;15.00;67.20;;;;;;5043273;27;87463;-37
2022/10/11 01:18:54;;;;;;;;;;;15.00;67.20;;;;;;5041752;28;88581;-37
2022/10/11 01:21:42;;;;;;;;;;;15.00;67.20;;;;;;5043169;28;86978;-37
2022/10/11 01:24:07;;;;;;;;;;;15.00;67.20;;;;;;5042603;28;87428;-37
2022/10/11 01:26:45;;;;;;;;;;;15.00;67.20;;;;;;5042652;28;88381;-37
2022/10/11 01:29:22;;;;;;;;;;;15.00;67.30;;;;;;5045009;28;87082;-37
2022/10/11 01:31:57;;;;;;;;;;;15.00;67.30;;;;;;5042605;28;88186;-37
2022/10/11 01:34:39;;;;;;;;;;;15.00;67.30;;;;;;5042778;28;87075;-37
2022/10/11 01:37:09;;;;;;;;;;;14.90;67.20;;;;;;5043461;27;87508;-37
2022/10/11 01:39:37;;;;;;;;;;;14.90;67.30;;;;;;5042336;28;88183;-38
2022/10/11 01:42:05;;;;;;;;;;;14.90;67.20;;;;;;5042739;28;87095;-37
2022/10/11 01:44:31;;;;;;;;;;;14.90;67.20;;;;;;5042056;27;87922;-37
2022/10/11 01:46:57;;;;;;;;;;;14.90;67.20;;;;;;5042391;28;87984;-37
2022/10/11 01:49:22;;;;;;;;;;;14.90;67.20;;;;;;5042641;28;87003;-38
2022/10/11 01:51:50;;;;;;;;;;;14.90;67.20;;;;;;5045263;28;87022;-37
2022/10/11 01:54:25;;;;;;;;;;;14.90;67.20;;;;;;5042412;28;86951;-37
2022/10/11 01:56:50;;;;;;;;;;;14.90;67.30;;;;;;5042954;28;87787;-37
2022/10/11 01:59:27;;;;;;;;;;;14.90;67.30;;;;;;5042345;28;88155;-37
2022/10/11 02:01:52;;;;;;;;;;;14.90;67.30;;;;;;5043154;28;86202;-37
2022/10/11 02:04:18;;;;;;;;;;;14.90;67.30;;;;;;5042417;27;87119;-37
2022/10/11 02:06:59;;;;;;;;;;;14.80;67.30;;;;;;5042000;28;88039;-37
2022/10/11 02:09:24;;;;;;;;;;;14.80;67.30;;;;;;5041793;28;87965;-37
2022/10/11 02:11:52;;;;;;;;;;;14.90;67.40;;;;;;5044882;28;87615;-37
2022/10/11 02:14:21;;;;;;;;;;;14.80;67.30;;;;;;5042067;28;87038;-38
2022/10/11 02:16:52;;;;;;;;;;;14.80;67.30;;;;;;5041025;28;87981;-37
2022/10/11 02:19:19;;;;;;;;;;;14.80;67.30;;;;;;5041429;28;88176;-37
2022/10/11 02:21:48;;;;;;;;;;;14.80;67.30;;;;;;5042167;28;87051;-38
2022/10/11 02:24:17;;;;;;;;;;;14.80;67.30;;;;;;5041965;27;87320;-38
2022/10/11 02:26:44;;;;;;;;;;;14.80;67.30;;;;;;5042323;28;87501;-37
2022/10/11 02:29:11;;;;;;;;;;;14.80;67.30;;;;;;5042136;28;87436;-37
2022/10/11 02:31:37;;;;;;;;;;;14.80;67.30;;;;;;5042273;28;87444;-38
2022/10/11 02:34:29;;;;;;;;;;;14.80;67.40;;;;;;5043912;28;88784;-38
2022/10/11 02:37:13;;;;;;;;;;;14.80;67.40;;;;;;5024490;27;88360;-37
2022/10/11 02:40:07;;;;;;;;;;;14.80;67.60;;;;;;5043723;27;88088;-38
2022/10/11 02:42:36;;;;;;;;;;;14.80;67.40;;;;;;5035595;28;87131;-37
2022/10/11 02:45:21;;;;;;;;;;;14.70;67.30;;;;;;5045391;28;87064;-37
2022/10/11 02:47:47;;;;;;;;;;;14.70;67.30;;;;;;5044429;28;88078;-37
2022/10/11 02:50:14;;;;;;;;;;;14.70;67.40;;;;;;5045480;28;87070;-37
2022/10/11 02:52:39;;;;;;;;;;;14.70;67.40;;;;;;5045917;27;86933;-37
2022/10/11 02:55:05;;;;;;;;;;;14.70;67.30;;;;;;5044767;28;87736;-38
2022/10/11 02:57:31;;;;;;;;;;;14.70;67.30;;;;;;5048010;28;87120;-37
2022/10/11 02:59:56;;;;;;;;;;;14.70;67.30;;;;;;5044366;28;89153;-37
2022/10/11 03:02:22;;;;;;;;;;;14.70;67.30;;;;;;5045212;28;87140;-37
2022/10/11 03:04:47;;;;;;;;;;;14.70;67.30;;;;;;5045187;28;87356;-37
2022/10/11 03:07:13;;;;;;;;;;;14.70;67.30;;;;;;5044837;28;87313;-37
2022/10/11 03:09:39;;;;;;;;;;;14.70;67.40;;;;;;5044854;28;87125;-37
2022/10/11 03:12:05;;;;;;;;;;;14.70;67.40;;;;;;5045160;27;87340;-37
2022/10/11 03:14:30;;;;;;;;;;;14.70;67.40;;;;;;5044791;28;88157;-38
2022/10/11 03:16:56;;;;;;;;;;;14.70;67.40;;;;;;5045373;28;86325;-37
2022/10/11 03:19:21;;;;;;;;;;;14.60;67.40;;;;;;5047680;28;86859;-37
2022/10/11 03:21:47;;;;;;;;;;;14.70;67.40;;;;;;5045093;28;87001;-37
2022/10/11 03:24:12;;;;;;;;;;;14.60;67.40;;;;;;5043637;28;88061;-37
2022/10/11 03:26:38;;;;;;;;;;;14.70;67.40;;;;;;5044549;28;88057;-37
2022/10/11 03:29:03;;;;;;;;;;;14.60;67.40;;;;;;5045026;28;87083;-37
2022/10/11 03:31:29;;;;;;;;;;;14.60;67.40;;;;;;5045021;28;87592;-38
2022/10/11 03:33:54;;;;;;;;;;;14.60;67.40;;;;;;5044320;28;88040;-37
2022/10/11 03:36:20;;;;;;;;;;;14.60;67.40;;;;;;5044978;28;86809;-37
2022/10/11 03:38:46;;;;;;;;;;;14.60;67.40;;;;;;5044401;28;87544;-37
2022/10/11 03:41:11;;;;;;;;;;;14.60;67.40;;;;;;5047750;28;87262;-37
2022/10/11 03:43:37;;;;;;;;;;;14.60;67.50;;;;;;5044908;27;86967;-37
2022/10/11 03:46:02;;;;;;;;;;;14.60;67.40;;;;;;5044293;28;88243;-37
2022/10/11 03:48:28;;;;;;;;;;;14.50;67.40;;;;;;5043812;28;87993;-37
2022/10/11 03:50:54;;;;;;;;;;;14.50;67.40;;;;;;5043951;27;87561;-37
2022/10/11 03:53:19;;;;;;;;;;;14.50;67.40;;;;;;5043950;28;88196;-37
2022/10/11 03:55:45;;;;;;;;;;;14.50;67.40;;;;;;5044202;28;87184;-38
2022/10/11 03:58:10;;;;;;;;;;;14.50;67.40;;;;;;5044337;28;87698;-37
2022/10/11 04:00:36;;;;;;;;;;;14.50;67.50;;;;;;5044172;28;87222;-37
2022/10/11 04:03:04;;;;;;;;;;;14.50;67.50;;;;;;5047266;28;87101;-37
2022/10/11 04:05:29;;;;;;;;;;;14.50;67.50;;;;;;5044429;28;86436;-37
2022/10/11 04:07:55;;;;;;;;;;;14.50;67.60;;;;;;5044227;28;87010;-37
2022/10/11 04:10:20;;;;;;;;;;;14.50;67.60;;;;;;5043905;28;87311;-37
2022/10/11 04:12:46;;;;;;;;;;;14.40;67.50;;;;;;5043205;28;89106;-37
2022/10/11 04:15:12;;;;;;;;;;;14.40;67.60;;;;;;5044182;28;87675;-38
2022/10/11 04:17:38;;;;;;;;;;;14.40;67.50;;;;;;5044195;27;86838;-38
2022/10/11 04:20:04;;;;;;;;;;;14.50;67.60;;;;;;5043586;28;88053;-38
2022/10/11 04:22:31;;;;;;;;;;;14.40;67.60;;;;;;5046858;28;87104;-37
2022/10/11 04:24:56;;;;;;;;;;;14.40;67.60;;;;;;5043190;28;87905;-37
2022/10/11 04:27:22;;;;;;;;;;;14.40;67.60;;;;;;5043764;28;87206;-37
2022/10/11 04:29:48;;;;;;;;;;;14.40;67.60;;;;;;5044409;28;86491;-37
2022/10/11 04:32:13;;;;;;;;;;;14.40;67.70;;;;;;5043493;28;87630;-37
2022/10/11 04:34:39;;;;;;;;;;;14.40;67.70;;;;;;5044030;28;87203;-37
2022/10/11 04:37:04;;;;;;;;;;;14.40;67.60;;;;;;5043125;28;87914;-37
2022/10/11 04:39:30;;;;;;;;;;;14.30;67.80;;;;;;5043147;28;87152;-37
2022/10/11 04:41:55;;;;;;;;;;;14.30;67.80;;;;;;5043733;28;87090;-37
2022/10/11 04:44:20;;;;;;;;;;;14.30;67.80;;;;;;5046224;28;87417;-37
2022/10/11 04:46:46;;;;;;;;;;;14.40;67.70;;;;;;5043538;28;86898;-37
2022/10/11 04:49:11;;;;;;;;;;;14.30;67.60;;;;;;5043635;28;87488;-37
2022/10/11 04:51:37;;;;;;;;;;;14.30;67.70;;;;;;5043387;28;87688;-37
2022/10/11 04:54:02;;;;;;;;;;;14.30;67.80;;;;;;5043788;28;86436;-37
2022/10/11 04:56:29;;;;;;;;;;;14.30;67.80;;;;;;5043543;28;86954;-37
2022/10/11 04:58:54;;;;;;;;;;;14.30;67.80;;;;;;5042968;28;88385;-38
2022/10/11 05:01:20;;;;;;;;;;;14.20;67.80;;;;;;5042888;28;88135;-37
2022/10/11 05:03:46;;;;;;;;;;;14.30;67.80;;;;;;5042176;27;88333;-37
2022/10/11 05:06:12;;;;;;;;;;;14.20;67.70;;;;;;5046112;28;88078;-37
2022/10/11 05:08:37;;;;;;;;;;;14.30;67.80;;;;;;5043127;28;88476;-37
2022/10/11 05:11:04;;;;;;;;;;;14.20;67.90;;;;;;5042693;28;88034;-37
2022/10/11 05:13:30;;;;;;;;;;;14.20;67.80;;;;;;5043363;28;86796;-37
2022/10/11 05:15:56;;;;;;;;;;;14.30;67.80;;;;;;5043117;27;87377;-37
2022/10/11 05:18:22;;;;;;;;;;;14.20;67.90;;;;;;5043366;28;87252;-37
2022/10/11 05:20:47;;;;;;;;;;;14.20;67.70;;;;;;5043019;28;87547;-37
2022/10/11 05:23:13;;;;;;;;;;;14.20;67.80;;;;;;5042685;28;87439;-37
2022/10/11 05:25:38;;;;;;;;;;;14.20;67.70;;;;;;5041774;28;88936;-37
2022/10/11 05:28:04;;;;;;;;;;;14.20;67.70;;;;;;5045907;28;87561;-37
2022/10/11 05:30:30;;;;;;;;;;;14.20;67.60;;;;;;5042590;28;88112;-37
2022/10/11 05:32:55;;;;;;;;;;;14.20;67.70;;;;;;5042909;28;87103;-38
2022/10/11 05:35:21;;;;;;;;;;;14.20;67.70;;;;;;5043023;28;87448;-37
2022/10/11 05:37:46;;;;;;;;;;;14.20;67.80;;;;;;5042403;28;87983;-37
2022/10/11 05:40:12;;;;;;;;;;;14.20;67.80;;;;;;5042805;28;87205;-37
2022/10/11 05:42:38;;;;;;;;;;;14.20;67.70;;;;;;5043167;28;87485;-37
2022/10/11 05:45:04;;;;;;;;;;;14.20;67.70;;;;;;5042472;28;87943;-37
2022/10/11 05:47:30;;;;;;;;;;;14.20;67.70;;;;;;5042620;28;87223;-37
2022/10/11 05:49:55;;;;;;;;;;;14.20;67.70;;;;;;5044799;28;87818;-37
2022/10/11 05:52:21;;;;;;;;;;;14.20;67.80;;;;;;5042687;28;87079;-37
2022/10/11 05:54:47;;;;;;;;;;;14.20;67.80;;;;;;5042639;28;87568;-37
2022/10/11 05:57:12;;;;;;;;;;;14.20;67.80;;;;;;5042218;28;88159;-38
2022/10/11 05:59:38;;;;;;;;;;;14.10;67.80;;;;;;5042693;28;87106;-37
2022/10/11 06:02:03;;;;;;;;;;;14.10;67.80;;;;;;5042549;28;87467;-37
2022/10/11 06:04:29;;;;;;;;;;;14.10;67.90;;;;;;5042286;28;87207;-37
2022/10/11 06:06:54;;;;;;;;;;;14.10;67.80;;;;;;5042924;28;86380;-37
2022/10/11 06:09:20;;;;;;;;;;;14.10;68.00;;;;;;5042320;28;87017;-38
2022/10/11 06:11:45;;;;;;;;;;;14.10;67.80;;;;;;5045123;28;88009;-37
2022/10/11 06:14:11;;;;;;;;;;;14.10;67.90;;;;;;5043080;27;87942;-37
2022/10/11 06:16:36;;;;;;;;;;;14.10;67.90;;;;;;5045547;28;87979;-37
2022/10/11 06:19:02;;;;;;;;;;;14.10;67.80;;;;;;5046031;28;87198;-38
2022/10/11 06:21:28;;;;;;;;;;;14.10;67.80;;;;;;5045871;27;87461;-37
2022/10/11 06:23:53;;;;;;;;;;;14.10;67.80;;;;;;5044769;28;87182;-37
2022/10/11 06:26:19;;;;;;;;;;;14.10;67.80;;;;;;5045536;28;87118;-38
2022/10/11 06:28:44;;;;;;;;;;;14.10;67.80;;;;;;5045817;27;87053;-37
2022/10/11 06:31:10;;;;;;;;;;;14.00;67.90;;;;;;5048771;28;87087;-37
2022/10/11 06:33:36;;;;;;;;;;;14.10;67.90;;;;;;5045701;27;86954;-38
2022/10/11 06:36:03;;;;;;;;;;;14.10;68.00;;;;;;5045401;28;87874;-37
2022/10/11 06:38:28;;;;;;;;;;;14.10;67.90;;;;;;5044295;28;88015;-37
2022/10/11 06:40:54;;;;;;;;;;;14.10;67.80;;;;;;5045283;28;88456;-37
2022/10/11 06:43:20;;;;;;;;;;;14.10;67.80;;;;;;5045274;28;87050;-37
2022/10/11 06:45:45;;;;;;;;;;;14.10;67.80;;;;;;5045550;28;87038;-37
2022/10/11 06:48:11;;;;;;;;;;;14.10;67.70;;;;;;5045424;28;87471;-37
2022/10/11 06:50:37;;;;;;;;;;;14.10;67.80;;;;;;5045091;28;88163;-37
2022/10/11 06:53:03;;;;;;;;;;;14.10;67.90;;;;;;5048127;28;87085;-37
2022/10/11 06:55:30;;;;;;;;;;;14.10;67.80;;;;;;5045219;28;87068;-37
2022/10/11 06:57:55;;;;;;;;;;;14.10;67.90;;;;;;5045179;28;87084;-37
2022/10/11 07:00:21;;;;;;;;;;;14.00;67.80;;;;;;5045542;28;87095;-37
2022/10/11 07:02:47;;;;;;;;;;;14.10;67.80;;;;;;5044277;28;88406;-37
2022/10/11 07:05:12;;;;;;;;;;;14.10;67.80;;;;;;5045335;28;86864;-37
2022/10/11 07:07:38;;;;;;;;;;;14.10;67.80;;;;;;5044932;28;87350;-37
2022/10/11 07:10:03;;;;;;;;;;;14.10;67.80;;;;;;5044470;28;88221;-37
2022/10/11 07:12:29;;;;;;;;;;;14.10;67.80;;;;;;5045238;28;87255;-37
2022/10/11 07:14:54;;;;;;;;;;;14.10;67.80;;;;;;5047713;28;87376;-36
2022/10/11 07:17:20;;;;;;;;;;;14.00;67.80;;;;;;5045194;28;87100;-37
2022/10/11 07:19:46;;;;;;;;;;;14.10;67.80;;;;;;5045842;28;86986;-37
2022/10/11 07:22:11;;;;;;;;;;;14.00;67.70;;;;;;5044748;28;88310;-37
2022/10/11 07:24:37;;;;;;;;;;;14.10;67.70;;;;;;5044264;27;87050;-38
2022/10/11 07:27:02;;;;;;;;;;;14.10;67.80;;;;;;5043275;28;88323;-38
2022/10/11 07:29:28;;;;;;;;;;;14.10;67.80;;;;;;5044468;28;88082;-37
2022/10/11 07:31:53;;;;;;;;;;;14.10;67.80;;;;;;5044883;28;87095;-37
2022/10/11 07:34:21;;;;;;;;;;;14.00;67.90;;;;;;5044772;28;87541;-37
2022/10/11 07:36:47;;;;;;;;;;;14.00;67.90;;;;;;5047413;28;88286;-37
2022/10/11 07:39:12;;;;;;;;;;;14.10;67.90;;;;;;5044087;27;87374;-37
2022/10/11 07:41:38;;;;;;;;;;;14.00;67.90;;;;;;5044529;28;88234;-37
2022/10/11 07:44:04;;;;;;;;;;;14.00;67.90;;;;;;5045039;28;86282;-37
2022/10/11 07:46:29;;;;;;;;;;;14.00;68.00;;;;;;5044773;27;86894;-37
2022/10/11 07:48:55;;;;;;;;;;;14.00;68.00;;;;;;5044115;28;87711;-36
2022/10/11 07:51:21;;;;;;;;;;;14.00;68.00;;;;;;5043885;28;87947;-37
2022/10/11 07:53:48;;;;;;;;;;;14.00;67.90;;;;;;5044338;27;88434;-37
2022/10/11 07:56:15;;;;;;;;;;;14.10;67.80;;;;;;5043991;28;88124;-37
2022/10/11 07:58:41;;;;;;;;;;;14.00;67.90;;;;;;5047318;28;86873;-37
2022/10/11 08:01:07;;;;;;;;;;;14.00;68.10;;;;;;5043857;28;87014;-37
2022/10/11 08:03:33;;;;;;;;;;;14.00;68.20;;;;;;5044453;28;87062;-37
2022/10/11 08:06:00;;;;;;;;;;;14.00;68.30;;;;;;5044302;27;87024;-37
2022/10/11 08:08:25;;;;;;;;;;;14.00;68.20;;;;;;5043984;28;87370;-37
2022/10/11 08:10:51;;;;;;;;;;;14.00;68.10;;;;;;5044526;28;87077;-37
2022/10/11 08:13:16;;;;;;;;;;;14.00;68.20;;;;;;5044071;27;87353;-37
2022/10/11 08:15:42;;;;;;;;;;;14.00;68.30;;;;;;5043079;28;89125;-38
2022/10/11 08:18:07;;;;;;;;;;;14.00;68.10;;;;;;5044219;28;87216;-37
2022/10/11 08:20:33;;;;;;;;;;;14.00;67.90;;;;;;5046633;28;87197;-37
2022/10/11 08:22:58;;;;;;;;;;;14.00;68.00;;;;;;5043382;28;87114;-37
2022/10/11 08:25:24;;;;;;;;;;;14.00;68.10;;;;;;5044008;27;87510;-37
2022/10/11 08:27:49;;;;;;;;;;;14.00;68.10;;;;;;5043481;28;88498;-37
2022/10/11 08:30:15;;;;;;;;;;;14.00;68.60;;;;;;5043957;28;87775;-37
2022/10/11 08:32:40;;;;;;;;;;;14.10;67.90;;;;;;5044312;28;87438;-38
2022/10/11 08:35:06;;;;;;;;;;;14.10;68.00;;;;;;5043457;28;88026;-36
2022/10/11 08:37:32;;;;;;;;;;;14.00;67.90;;;;;;5043527;28;87170;-37
2022/10/11 08:39:57;;;;;;;;;;;14.00;68.00;;;;;;5045589;28;88009;-38
2022/10/11 08:42:38;;;;;;;;;;;14.00;68.00;;;;;;5043780;28;87060;-37
2022/10/11 08:45:08;;;;;;;;;;;14.00;68.00;;;;;;5043529;27;87556;-37
2022/10/11 08:47:41;;;;;;;;;;;14.00;67.90;;;;;;5043135;28;87185;-37
2022/10/11 08:50:13;;;;;;;;;;;14.00;68.00;;;;;;5043403;28;87046;-37
2022/10/11 08:53:02;;;;;;;;;;;14.10;68.00;;;;;;5043479;28;87565;-37
2022/10/11 08:55:49;;;;;;;;;;;14.00;68.00;;;;;;5037316;28;87793;-37
2022/10/11 08:58:17;;;;;;;;;;;14.00;68.20;;;;;;5044191;28;86264;-37
2022/10/11 09:00:44;;;;;;;;;;;14.00;68.20;;;;;;5043141;27;87295;-37
2022/10/11 09:03:27;;;;;;;;;;;14.10;68.20;;;;;;5045873;28;87656;-37
2022/10/11 09:06:12;;;;;;;;;;;14.00;68.20;;;;;;5043124;27;88769;-37
2022/10/11 09:08:54;;;;;;;;;;;14.10;68.20;;;;;;5042017;28;88055;-37
2022/10/11 09:11:31;;;;;;;;;;;14.10;68.20;;;;;;5043210;28;87049;-37
2022/10/11 09:14:34;;;;;;;;;;;14.00;68.10;;;;;;5043613;27;87441;-37
2022/10/11 09:17:12;;;;;;;;;;;14.10;68.10;;;;;;5000097;28;87356;-37
2022/10/11 09:19:45;;;;;;;;;;;14.10;68.10;;;;;;5000460;28;87160;-37
2022/10/11 09:22:27;;;;;;;;;;;14.10;68.10;;;;;;5025616;28;87249;-37
2022/10/11 09:24:52;;;;;;;;;;;14.10;68.00;;;;;;5042991;28;87382;-37
2022/10/11 09:27:19;;;;;;;;;;;14.10;68.00;;;;;;5045905;28;86952;-37
2022/10/11 09:29:53;;;;;;;;;;;14.10;67.90;;;;;;5042534;28;88185;-37
2022/10/11 09:32:22;;;;;;;;;;;14.10;67.90;;;;;;5042189;28;88062;-38
2022/10/11 09:34:54;;;;;;;;;;;14.10;68.10;;;;;;5042812;27;88263;-37
2022/10/11 09:37:23;;;;;;;;;;;14.10;68.10;;;;;;5042473;28;88331;-37
2022/10/11 09:40:02;;;;;;;;;;;14.10;68.10;;;;;;5042701;28;86975;-38
2022/10/11 09:42:27;;;;;;;;;;;14.10;68.20;;;;;;5043043;28;87507;-37
2022/10/11 09:44:54;;;;;;;;;;;14.10;68.10;;;;;;5042321;28;88002;-37
2022/10/11 09:47:27;;;;;;;;;;;14.10;68.10;;;;;;5042838;28;87072;-38
2022/10/11 09:49:56;;;;;;;;;;;14.10;68.20;;;;;;5044974;27;87170;-38
2022/10/11 09:52:22;;;;;;;;;;;14.10;68.20;;;;;;5042538;28;87098;-37
2022/10/11 09:54:59;;;;;;;;;;;14.10;68.20;;;;;;5042650;27;87446;-38
2022/10/11 09:57:26;;;;;;;;;;;14.20;68.20;;;;;;5041482;28;87820;-37
2022/10/11 09:59:58;;;;;;;;;;;14.10;68.10;;;;;;5042566;28;87002;-37
2022/10/11 10:02:24;;;;;;;;;;;14.10;68.10;;;;;;5042631;27;87382;-37
2022/10/11 10:04:52;;;;;;;;;;;14.10;68.20;;;;;;5042108;28;88097;-36
2022/10/11 10:07:18;;;;;;;;;;;14.10;68.20;;;;;;5042318;28;87069;-37
2022/10/11 10:09:43;;;;;;;;;;;14.10;68.30;;;;;;5042173;28;87491;-37
2022/10/11 10:12:13;;;;;;;;;;;14.20;68.20;;;;;;5044807;28;88149;-37
2022/10/11 10:14:39;;;;;;;;;;;14.20;68.30;;;;;;5042841;27;87407;-37
2022/10/11 10:17:05;;;;;;;;;;;14.20;68.30;;;;;;5041889;28;88037;-37
2022/10/11 10:19:39;;;;;;;;;;;14.20;68.10;;;;;;5042424;28;87076;-38
2022/10/11 10:22:05;;;;;;;;;;;14.20;68.20;;;;;;5041768;28;87815;-37
2022/10/11 10:24:38;;;;;;;;;;;14.20;68.20;;;;;;5041319;28;87926;-37
2022/10/11 10:27:04;;;;;;;;;;;14.30;68.20;;;;;;5042242;28;87078;-37
2022/10/11 10:29:29;;;;;;;;;;;14.30;68.20;;;;;;5042400;27;87293;-37
2022/10/11 10:31:56;;;;;;;;;;;14.30;68.20;;;;;;5041829;28;88296;-38
2022/10/11 10:34:30;;;;;;;;;;;14.30;68.10;;;;;;5045033;28;87006;-38
2022/10/11 10:37:05;;;;;;;;;;;14.30;68.00;;;;;;5041580;28;87452;-37
2022/10/11 10:39:50;;;;;;;;;;;14.30;68.30;;;;;;5042382;28;86422;-37
2022/10/11 10:42:17;;;;;;;;;;;14.30;68.30;;;;;;5042223;28;86876;-37
2022/10/11 10:44:44;;;;;;;;;;;14.30;68.40;;;;;;5041655;28;87166;-37
2022/10/11 10:47:19;;;;;;;;;;;14.30;68.20;;;;;;5041122;28;88013;-37
2022/10/11 10:49:54;;;;;;;;;;;14.30;68.40;;;;;;5041804;28;88357;-37
2022/10/11 10:52:19;;;;;;;;;;;14.30;68.50;;;;;;5041791;28;88083;-37
2022/10/11 10:54:51;;;;;;;;;;;14.30;68.60;;;;;;5045010;28;87064;-36
2022/10/11 10:57:19;;;;;;;;;;;14.40;68.70;;;;;;5041548;28;88040;-37
2022/10/11 10:59:45;;;;;;;;;;;14.30;68.50;;;;;;5041699;27;86817;-38
2022/10/11 11:02:16;;;;;;;;;;;14.30;68.50;;;;;;5044526;27;87123;-38
2022/10/11 11:04:44;;;;;;;;;;;14.30;68.60;;;;;;5045123;28;86395;-37
2022/10/11 11:07:19;;;;;;;;;;;14.30;68.70;;;;;;5045118;28;87162;-37
2022/10/11 11:09:50;;;;;;;;;;;14.30;68.70;;;;;;5045481;27;86886;-37
2022/10/11 11:12:34;;;;;;;;;;;14.30;69.40;;;;;;5044257;28;88944;-37
2022/10/11 11:14:59;;;;;;;;;;;14.30;68.70;;;;;;5045113;28;87131;-37
2022/10/11 11:17:31;;;;;;;;;;;14.30;68.70;;;;;;5047806;27;87169;-36
2022/10/11 11:20:01;;;;;;;;;;;14.30;68.70;;;;;;5045087;28;87176;-37
2022/10/11 11:22:32;;;;;;;;;;;14.30;68.70;;;;;;5044880;27;87374;-37
2022/10/11 11:25:16;;;;;;;;;;;14.30;68.80;;;;;;5044107;28;88188;-37
2022/10/11 11:27:48;;;;;;;;;;;14.30;68.90;;;;;;5044892;27;87147;-37
2022/10/11 11:30:21;;;;;;;;;;;14.30;68.80;;;;;;5045498;28;87445;-37
2022/10/11 11:32:57;;;;;;;;;;;14.30;68.80;;;;;;5044400;28;88226;-38
2022/10/11 11:35:37;;;;;;;;;;;14.30;69.20;;;;;;5044849;28;87039;-37
2022/10/11 11:38:10;;;;;;;;;;;14.30;69.00;;;;;;5044148;27;87759;-37
2022/10/11 11:40:39;;;;;;;;;;;14.30;69.10;;;;;;5047573;28;87169;-37
2022/10/11 11:43:22;;;;;;;;;;;14.30;69.20;;;;;;5044728;28;87347;-37
2022/10/11 11:45:48;;;;;;;;;;;14.30;69.20;;;;;;5044145;28;87140;-37
2022/10/11 11:48:17;;;;;;;;;;;14.30;69.10;;;;;;5044456;28;87126;-37
2022/10/11 11:50:47;;;;;;;;;;;14.40;69.20;;;;;;5044365;27;87381;-37
2022/10/11 11:53:14;;;;;;;;;;;14.40;68.90;;;;;;5043948;28;87988;-38
2022/10/11 11:55:48;;;;;;;;;;;14.40;69.20;;;;;;5044892;28;86246;-37
2022/10/11 11:58:35;;;;;;;;;;;14.40;69.50;;;;;;5044367;27;86907;-37
2022/10/11 12:01:19;;;;;;;;;;;14.40;69.30;;;;;;5044067;27;87947;-37
2022/10/11 12:03:49;;;;;;;;;;;14.40;69.20;;;;;;5046593;27;87960;-37
2022/10/11 12:06:31;;;;;;;;;;;14.30;69.30;;;;;;5043942;28;88145;-37
2022/10/11 12:09:23;;;;;;;;;;;14.40;69.30;;;;;;5043818;28;87085;-37
2022/10/11 12:11:55;;;;;;;;;;;14.40;69.60;;;;;;5041321;28;87814;-37
2022/10/11 12:14:32;;;;;;;;;;;14.40;69.60;;;;;;5043941;28;87026;-37
2022/10/11 12:17:07;;;;;;;;;;;14.50;69.20;;;;;;5044260;28;86854;-38
2022/10/11 12:19:33;;;;;;;;;;;14.40;69.20;;;;;;5043935;28;87990;-37
2022/10/11 12:22:17;;;;;;;;;;;14.40;69.40;;;;;;5044233;28;87695;-37
2022/10/11 12:25:01;;;;;;;;;;;14.40;69.20;;;;;;5043764;27;87199;-37
2022/10/11 12:27:36;;;;;;;;;;;14.50;69.20;;;;;;5046437;27;87466;-38
2022/10/11 12:30:02;;;;;;;;;;;14.50;69.40;;;;;;5043181;28;88032;-37
2022/10/11 12:32:34;;;;;;;;;;;14.50;69.60;;;;;;5043850;27;88255;-37
2022/10/11 12:35:18;;;;;;;;;;;14.50;69.40;;;;;;5043375;28;87568;-37
2022/10/11 12:37:48;;;;;;;;;;;14.50;69.60;;;;;;5043879;27;87258;-37
2022/10/11 12:40:32;;;;;;;;;;;14.50;69.30;;;;;;5043352;27;87429;-37
2022/10/11 12:43:10;;;;;;;;;;;14.50;69.70;;;;;;5043442;27;88182;-37
2022/10/11 12:45:35;;;;;;;;;;;14.50;69.70;;;;;;5043643;28;87240;-37
2022/10/11 12:48:21;;;;;;;;;;;14.50;69.80;;;;;;5046611;28;87576;-37
2022/10/11 12:50:53;;;;;;;;;;;14.50;70.00;;;;;;5043438;28;87413;-37
2022/10/11 12:53:30;;;;;;;;;;;14.60;69.70;;;;;;5043618;28;87431;-38
2022/10/11 12:56:01;;;;;;;;;;;14.60;69.60;;;;;;5042502;28;88171;-37
2022/10/11 12:58:28;;;;;;;;;;;14.50;69.80;;;;;;5043404;28;86953;-37
2022/10/11 13:00:55;;;;;;;;;;;14.60;70.10;;;;;;5043359;27;87717;-37
2022/10/11 13:03:36;;;;;;;;;;;14.60;70.20;;;;;;5042763;28;87980;-37
2022/10/11 13:06:14;;;;;;;;;;;14.60;70.20;;;;;;5043406;28;86649;-37
2022/10/11 13:08:42;;;;;;;;;;;14.60;69.80;;;;;;5042913;28;87840;-37
2022/10/11 13:11:08;;;;;;;;;;;14.50;69.70;;;;;;5045741;28;87946;-37
2022/10/11 13:13:39;;;;;;;;;;;14.50;70.20;;;;;;5043483;27;87241;-37
2022/10/11 13:16:08;;;;;;;;;;;14.60;70.40;;;;;;5042497;28;88100;-37
2022/10/11 13:18:33;;;;;;;;;;;14.60;70.20;;;;;;5042902;28;87148;-38
2022/10/11 13:20:59;;;;;;;;;;;14.60;70.20;;;;;;5042370;27;87842;-38
2022/10/11 13:23:28;;;;;;;;;;;14.60;70.30;;;;;;5041338;27;87325;-37
2022/10/11 13:25:54;;;;;;;;;;;14.60;70.00;;;;;;5042813;28;87089;-37
2022/10/11 13:28:20;;;;;;;;;;;14.60;70.60;;;;;;5042602;27;87080;-37
2022/10/11 13:30:48;;;;;;;;;;;14.60;70.70;;;;;;5042639;28;87946;-38
2022/10/11 13:33:22;;;;;;;;;;;14.60;70.50;;;;;;5045784;28;87047;-37
2022/10/11 13:35:48;;;;;;;;;;;14.50;70.50;;;;;;5042409;28;87897;-37
2022/10/11 13:38:27;;;;;;;;;;;14.60;70.70;;;;;;5043347;28;86323;-37
2022/10/11 13:40:54;;;;;;;;;;;14.60;71.00;;;;;;5042429;27;86986;-37
2022/10/11 13:43:22;;;;;;;;;;;14.60;70.50;;;;;;5042511;28;87967;-37
2022/10/11 13:45:48;;;;;;;;;;;14.60;70.70;;;;;;5041986;28;88028;-37
2022/10/11 13:48:14;;;;;;;;;;;14.60;70.50;;;;;;5042578;27;88340;-37
2022/10/11 13:50:44;;;;;;;;;;;14.60;70.80;;;;;;5042227;28;87978;-38
2022/10/11 13:53:10;;;;;;;;;;;14.60;70.90;;;;;;5042557;28;87223;-37
2022/10/11 13:55:54;;;;;;;;;;;14.60;71.00;;;;;;5045174;28;87652;-37
2022/10/11 13:58:22;;;;;;;;;;;14.60;70.90;;;;;;5042632;27;87099;-38
2022/10/11 14:00:52;;;;;;;;;;;14.60;70.80;;;;;;5042555;28;87580;-37
2022/10/11 14:03:18;;;;;;;;;;;14.60;70.90;;;;;;5042649;28;87205;-37
2022/10/11 14:05:54;;;;;;;;;;;14.70;70.90;;;;;;5042476;28;87059;-37
2022/10/11 14:08:40;;;;;;;;;;;14.70;70.90;;;;;;5042216;28;86961;-37
2022/10/11 14:11:07;;;;;;;;;;;14.70;71.00;;;;;;5040665;28;89107;-37
2022/10/11 14:13:50;;;;;;;;;;;14.70;70.80;;;;;;5042289;28;87010;-37
2022/10/11 14:16:19;;;;;;;;;;;14.70;70.90;;;;;;5042386;27;87365;-37
2022/10/11 14:18:46;;;;;;;;;;;14.70;70.70;;;;;;5044642;28;87944;-37
2022/10/11 14:21:30;;;;;;;;;;;14.70;71.00;;;;;;5042055;28;87333;-37
2022/10/11 14:23:57;;;;;;;;;;;14.70;70.90;;;;;;5041508;27;87922;-37
2022/10/11 14:26:23;;;;;;;;;;;14.70;70.60;;;;;;5042147;28;87165;-38